Time;durP1;ratioP1;P1;durP2;ratioP2;P2;SDS_P1;SDS_P2;PMS_P1;PMS_P2;Temp;Humidity;BMP_temperature;BMP_pressure;BME280_temperature;BME280_humidity;BME280_pressure;Samples;Min_cycle;Max_cycle;Signal;HPM_P1;HPM_P2
2022/08/29 00:02:14;;;;;;;3.85;1.60;;;;;;;-148.16;100.00;58328.31;5030441;28;20036;-58
2022/08/29 00:05:00;;;;;;;4.20;1.98;;;;;;;-148.16;100.00;58328.31;5066325;28;20044;-58
2022/08/29 00:07:45;;;;;;;5.78;2.17;;;;;;;-148.16;100.00;58328.31;5030408;28;20061;-58
2022/08/29 00:10:36;;;;;;;5.22;2.58;;;;;;;-148.16;100.00;58328.31;5073573;28;20144;-58
2022/08/29 00:13:21;;;;;;;3.87;2.13;;;;;;;-148.16;100.00;58328.31;5031272;28;20116;-58
2022/08/29 00:16:05;;;;;;;3.95;2.13;;;;;;;-148.16;100.00;58328.31;5054788;28;20037;-59
2022/08/29 00:18:50;;;;;;;4.65;2.00;;;;;;;-148.16;100.00;58328.31;5031180;28;20534;-58
2022/08/29 00:21:35;;;;;;;4.18;2.10;;;;;;;-148.16;100.00;58328.31;5033221;28;20133;-58
2022/08/29 00:24:19;;;;;;;3.67;2.08;;;;;;;-148.16;100.00;58328.31;5044226;28;20076;-58
2022/08/29 00:27:04;;;;;;;4.35;2.22;;;;;;;-148.16;100.00;58328.31;5042393;28;20396;-58
2022/08/29 00:29:49;;;;;;;4.53;2.10;;;;;;;-148.16;100.00;58328.31;5042576;28;20068;-58
2022/08/29 00:32:35;;;;;;;4.63;1.95;;;;;;;-148.16;100.00;58328.31;5029746;28;20033;-59
2022/08/29 00:35:24;;;;;;;3.42;1.83;;;;;;;-148.16;100.00;58328.31;5042383;28;20142;-59
2022/08/29 00:38:11;;;;;;;7.25;2.60;;;;;;;-148.16;100.00;58328.31;5036754;28;20049;-59
2022/08/29 00:40:56;;;;;;;9.63;2.20;;;;;;;-148.16;100.00;58328.31;5036276;28;20056;-59
2022/08/29 00:43:41;;;;;;;5.05;2.10;;;;;;;-148.16;100.00;58328.31;5036191;28;20042;-58
2022/08/29 00:46:37;;;;;;;3.05;2.05;;;;;;;-148.16;100.00;58328.31;5034697;28;20049;-58
2022/08/29 00:49:25;;;;;;;6.65;2.22;;;;;;;-148.16;100.00;58328.31;5050530;28;20170;-58
2022/08/29 00:52:30;;;;;;;3.90;2.03;;;;;;;-148.16;100.00;58328.31;5032006;28;20040;-58
2022/08/29 00:55:21;;;;;;;4.95;2.30;;;;;;;-148.16;100.00;58328.31;5030649;28;20034;-58
2022/08/29 00:58:23;;;;;;;5.15;2.03;;;;;;;-148.16;100.00;58328.31;5040094;28;20056;-59
2022/08/29 01:01:07;;;;;;;3.00;1.63;;;;;;;-148.16;100.00;58328.31;5036688;28;20366;-58
2022/08/29 01:03:53;;;;;;;5.70;2.40;;;;;;;-148.16;100.00;58328.31;5034475;28;20083;-58
2022/08/29 01:06:39;;;;;;;4.18;1.83;;;;;;;-148.16;100.00;58328.31;5043117;28;20384;-59
2022/08/29 01:09:26;;;;;;;4.22;1.90;;;;;;;-148.16;100.00;58328.31;5041580;28;20123;-58
2022/08/29 01:12:16;;;;;;;2.35;1.65;;;;;;;-148.16;100.00;58328.31;5038959;28;20534;-58
2022/08/29 01:15:06;;;;;;;3.13;1.80;;;;;;;-148.16;100.00;58328.31;5042430;28;20065;-58
2022/08/29 01:17:51;;;;;;;4.28;2.28;;;;;;;-148.16;100.00;58328.31;5036454;28;20477;-58
2022/08/29 01:20:48;;;;;;;4.50;1.88;;;;;;;-148.16;100.00;58328.31;5034363;28;20076;-58
2022/08/29 01:23:42;;;;;;;4.30;2.00;;;;;;;-148.16;100.00;58328.31;5041368;28;20546;-58
2022/08/29 01:26:29;;;;;;;4.50;2.25;;;;;;;-148.16;100.00;58328.31;5070740;28;20054;-58
2022/08/29 01:29:15;;;;;;;4.82;2.22;;;;;;;-148.16;100.00;58328.31;5036314;28;20380;-61
2022/08/29 01:32:01;;;;;;;7.72;2.10;;;;;;;-148.16;100.00;58328.31;5041892;28;20128;-58
2022/08/29 01:34:45;;;;;;;9.02;2.33;;;;;;;-148.16;100.00;58328.31;5049848;28;20382;-58
2022/08/29 01:37:32;;;;;;;4.10;1.92;;;;;;;-148.16;100.00;58328.31;5038678;28;20041;-59
2022/08/29 01:40:18;;;;;;;8.70;2.40;;;;;;;-148.16;100.00;58328.31;5033480;28;20537;-58
2022/08/29 01:43:03;;;;;;;4.07;2.00;;;;;;;-148.16;100.00;58328.31;5033999;28;20120;-59
2022/08/29 01:45:49;;;;;;;4.90;2.17;;;;;;;-148.16;100.00;58328.31;5035629;28;20048;-58
2022/08/29 01:48:36;;;;;;;5.00;2.05;;;;;;;-148.16;100.00;58328.31;5022710;28;20456;-58
2022/08/29 01:51:21;;;;;;;7.22;2.15;;;;;;;-148.16;100.00;58328.31;5046908;28;20069;-58
2022/08/29 01:54:08;;;;;;;4.05;1.80;;;;;;;-148.16;100.00;58328.31;5036525;28;20524;-59
2022/08/29 01:56:53;;;;;;;3.38;1.83;;;;;;;-148.16;100.00;58328.31;5032816;28;20043;-60
2022/08/29 01:59:37;;;;;;;2.83;1.58;;;;;;;-148.16;100.00;58328.31;5041047;28;20041;-59
2022/08/29 02:02:26;;;;;;;3.88;1.60;;;;;;;-148.16;100.00;58328.31;5044356;28;20389;-58
2022/08/29 02:05:10;;;;;;;1.77;1.27;;;;;;;-148.16;100.00;58328.31;5036422;28;20139;-59
2022/08/29 02:07:56;;;;;;;2.85;1.80;;;;;;;-148.16;100.00;58328.31;5048897;28;20057;-58
2022/08/29 02:10:41;;;;;;;2.63;1.48;;;;;;;-148.16;100.00;58328.31;5048377;28;20037;-58
2022/08/29 02:13:26;;;;;;;2.35;1.55;;;;;;;-148.16;100.00;58328.31;5044790;28;20076;-58
2022/08/29 02:16:12;;;;;;;4.93;1.80;;;;;;;-148.16;100.00;58328.31;5033462;28;20045;-59
2022/08/29 02:18:57;;;;;;;3.10;1.70;;;;;;;-148.16;100.00;58328.31;5033692;28;20048;-58
2022/08/29 02:21:43;;;;;;;3.08;1.58;;;;;;;-148.16;100.00;58328.31;5033811;28;20056;-59
2022/08/29 02:24:29;;;;;;;4.18;1.88;;;;;;;-148.16;100.00;58328.31;5046712;28;20136;-58
2022/08/29 02:27:13;;;;;;;6.68;2.20;;;;;;;-148.16;100.00;58328.31;5038613;28;20072;-58
2022/08/29 02:29:58;;;;;;;6.35;2.22;;;;;;;-148.16;100.00;58328.31;5050272;28;20072;-58
2022/08/29 02:32:42;;;;;;;4.00;2.10;;;;;;;-148.16;100.00;58328.31;5034406;28;20077;-59
2022/08/29 02:35:27;;;;;;;2.78;1.50;;;;;;;-148.16;100.00;58328.31;5044238;28;20041;-58
2022/08/29 02:38:12;;;;;;;4.25;1.70;;;;;;;-148.16;100.00;58328.31;5034864;28;20481;-59
2022/08/29 02:40:56;;;;;;;5.40;2.15;;;;;;;-148.16;100.00;58328.31;5039305;28;20069;-58
2022/08/29 02:43:41;;;;;;;4.90;2.10;;;;;;;-148.16;100.00;58328.31;5047978;28;20049;-58
2022/08/29 02:46:25;;;;;;;2.83;1.75;;;;;;;-148.16;100.00;58328.31;5044356;28;20048;-58
2022/08/29 02:49:10;;;;;;;4.50;1.95;;;;;;;-148.16;100.00;58328.31;5032140;28;20079;-58
2022/08/29 02:51:55;;;;;;;4.80;2.17;;;;;;;-148.16;100.00;58328.31;5070025;28;20041;-58
2022/08/29 02:54:40;;;;;;;4.65;2.00;;;;;;;-148.16;100.00;58328.31;5038562;28;20072;-58
2022/08/29 02:57:25;;;;;;;4.60;2.00;;;;;;;-148.16;100.00;58328.31;5048978;28;20124;-58
2022/08/29 03:00:17;;;;;;;5.85;2.30;;;;;;;-148.16;100.00;58328.31;5031418;28;20124;-58
2022/08/29 03:03:02;;;;;;;4.60;2.10;;;;;;;-148.16;100.00;58328.31;5048985;28;20114;-58
2022/08/29 03:05:47;;;;;;;2.75;1.80;;;;;;;-148.16;100.00;58328.31;5037886;28;20384;-57
2022/08/29 03:08:32;;;;;;;4.53;1.80;;;;;;;-148.16;100.00;58328.31;5064469;28;20106;-58
2022/08/29 03:11:17;;;;;;;4.85;2.10;;;;;;;-148.16;100.00;58328.31;5033215;28;20042;-57
2022/08/29 03:14:02;;;;;;;6.07;1.92;;;;;;;-148.16;100.00;58328.31;5030947;28;20053;-57
2022/08/29 03:16:46;;;;;;;4.28;2.50;;;;;;;-148.16;100.00;58328.31;5044313;28;20393;-57
2022/08/29 03:19:31;;;;;;;4.13;1.63;;;;;;;-148.16;100.00;58328.31;5044812;28;20047;-59
2022/08/29 03:22:16;;;;;;;3.13;1.95;;;;;;;-148.16;100.00;58328.31;5073573;28;20045;-58
2022/08/29 03:25:03;;;;;;;4.55;2.05;;;;;;;-148.16;100.00;58328.31;5043866;28;20064;-57
2022/08/29 03:27:48;;;;;;;3.60;1.70;;;;;;;-148.16;100.00;58328.31;5032573;28;20120;-57
2022/08/29 03:30:32;;;;;;;3.28;1.83;;;;;;;-148.16;100.00;58328.31;5036985;28;20154;-60
2022/08/29 03:33:17;;;;;;;6.72;2.38;;;;;;;-148.16;100.00;58328.31;5032186;28;20120;-57
2022/08/29 03:36:03;;;;;;;4.38;1.77;;;;;;;-148.16;100.00;58328.31;5040132;28;20465;-57
2022/08/29 03:38:48;;;;;;;4.45;2.05;;;;;;;-148.16;100.00;58328.31;5033415;28;20033;-57
2022/08/29 03:41:33;;;;;;;5.35;2.20;;;;;;;-148.16;100.00;58328.31;5031780;28;20046;-57
2022/08/29 03:44:18;;;;;;;2.35;1.48;;;;;;;-148.16;100.00;58328.31;5031413;28;20041;-58
2022/08/29 03:47:09;;;;;;;3.17;1.45;;;;;;;;;;5067407;27;20373;-57
2022/08/29 03:49:54;;;;;;;3.17;1.70;;;;;;;;;;5066524;28;20071;-57
2022/08/29 03:52:38;;;;;;;2.78;1.83;;;;;;;;;;5048340;28;20168;-58
2022/08/29 03:55:24;;;;;;;3.83;1.90;;;;;;;;;;5050788;28;20056;-58
2022/08/29 03:58:09;;;;;;;3.75;1.85;;;;;;;;;;5066096;28;20089;-58
2022/08/29 04:00:54;;;;;;;3.70;1.70;;;;;;;;;;5060540;28;20033;-59
2022/08/29 04:03:38;;;;;;;3.83;2.00;;;;;;;;;;5029135;28;20112;-58
2022/08/29 04:06:27;;;;;;;3.95;1.85;;;;;;;;;;5059520;28;20040;-58
2022/08/29 04:09:11;;;;;;;3.35;1.45;;;;;;;;;;5041215;28;20036;-58
2022/08/29 04:11:56;;;;;;;5.55;1.95;;;;;;;;;;5065625;28;20049;-57
2022/08/29 04:14:40;;;;;;;4.40;2.08;;;;;;;;;;5057000;28;20083;-58
2022/08/29 04:17:24;;;;;;;4.05;1.90;;;;;;;;;;5049504;28;20057;-62
2022/08/29 04:20:09;;;;;;;4.13;2.10;;;;;;;;;;5056801;28;20083;-58
2022/08/29 04:22:55;;;;;;;4.35;1.70;;;;;;;;;;5066308;28;20033;-58
2022/08/29 04:25:41;;;;;;;5.38;2.20;;;;;;;;;;5060354;28;20052;-59
2022/08/29 04:28:25;;;;;;;5.78;1.90;;;;;;;;;;5059388;28;20119;-58
2022/08/29 04:31:11;;;;;;;5.75;2.17;;;;;;;;;;5055272;28;20047;-58
2022/08/29 04:33:56;;;;;;;2.35;1.58;;;;;;;;;;5061757;28;20045;-58
2022/08/29 04:36:41;;;;;;;3.28;2.08;;;;;;;;;;5060743;28;20449;-58
2022/08/29 04:39:26;;;;;;;5.70;2.42;;;;;;;;;;5059931;28;20048;-58
2022/08/29 04:42:11;;;;;;;3.42;2.10;;;;;;;;;;5058106;28;20159;-58
2022/08/29 04:44:56;;;;;;;4.85;1.98;;;;;;;;;;5051995;28;20520;-58
2022/08/29 04:47:41;;;;;;;3.92;2.33;;;;;;;;;;5057073;28;20659;-58
2022/08/29 04:50:25;;;;;;;5.72;2.60;;;;;;;;;;5059049;28;20072;-58
2022/08/29 04:53:12;;;;;;;5.45;2.30;;;;;;;;;;5046018;28;20492;-59
2022/08/29 04:55:57;;;;;;;4.93;2.25;;;;;;;;;;5056457;28;20056;-58
2022/08/29 04:58:42;;;;;;;4.53;1.95;;;;;;;;;;5044915;28;20131;-58
2022/08/29 05:01:27;;;;;;;4.88;2.25;;;;;;;;;;5045630;28;20437;-58
2022/08/29 05:04:12;;;;;;;4.05;2.13;;;;;;;;;;5050755;28;20045;-59
2022/08/29 05:06:56;;;;;;;3.55;2.10;;;;;;;;;;5052039;28;20507;-59
2022/08/29 05:09:40;;;;;;;4.32;2.00;;;;;;;;;;5060010;28;20123;-58
2022/08/29 05:12:27;;;;;;;5.72;2.53;;;;;;;;;;5040390;28;20052;-58
2022/08/29 05:15:12;;;;;;;5.38;2.30;;;;;;;;;;5052184;28;20042;-58
2022/08/29 05:17:57;;;;;;;5.53;2.22;;;;;;;;;;5051005;28;20064;-58
2022/08/29 05:20:42;;;;;;;5.88;2.50;;;;;;;;;;5051930;28;20757;-58
2022/08/29 05:23:26;;;;;;;3.72;2.15;;;;;;;;;;5045359;28;20045;-59
2022/08/29 05:26:11;;;;;;;3.92;2.10;;;;;;;;;;5041672;28;20073;-58
2022/08/29 05:28:56;;;;;;;5.30;2.58;;;;;;;;;;5049959;28;20073;-58
2022/08/29 05:31:41;;;;;;;5.72;2.05;;;;;;;;;;5051968;28;20047;-58
2022/08/29 05:34:26;;;;;;;4.35;2.55;;;;;;;;;;5051797;28;20064;-58
2022/08/29 05:37:11;;;;;;;6.10;2.17;;;;;;;;;;5052219;28;20400;-58
2022/08/29 05:39:56;;;;;;;5.00;2.70;;;;;;;;;;5045391;28;20048;-58
2022/08/29 05:42:40;;;;;;;4.97;2.28;;;;;;;;;;5045907;28;20541;-58
2022/08/29 05:45:25;;;;;;;4.30;2.30;;;;;;;;;;5031907;28;20191;-60
2022/08/29 05:48:09;;;;;;;7.90;2.10;;;;;;;;;;5038279;28;20128;-58
2022/08/29 05:50:54;;;;;;;3.83;2.30;;;;;;;;;;5046605;28;20048;-58
2022/08/29 05:53:38;;;;;;;4.30;2.17;;;;;;;;;;5033775;28;20488;-58
2022/08/29 05:56:24;;;;;;;3.65;2.13;;;;;;;;;;5036397;28;20092;-58
2022/08/29 05:59:10;;;;;;;3.85;2.03;;;;;;;;;;5036553;28;20400;-58
2022/08/29 06:01:55;;;;;;;4.03;2.05;;;;;;;;;;5048257;28;20044;-58
2022/08/29 06:04:39;;;;;;;3.80;2.40;;;;;;;;;;5033893;28;20069;-58
2022/08/29 06:07:24;;;;;;;5.18;2.20;;;;;;;;;;5037737;28;20087;-59
2022/08/29 06:10:08;;;;;;;5.18;2.03;;;;;;;;;;5043006;28;20155;-58
2022/08/29 06:12:53;;;;;;;3.70;2.10;;;;;;;;;;5031264;28;20430;-59
2022/08/29 06:15:41;;;;;;;4.10;2.33;;;;;;;;;;5032704;28;20045;-58
2022/08/29 06:18:25;;;;;;;4.97;2.13;;;;;;;;;;5032674;28;20479;-58
2022/08/29 06:21:10;;;;;;;3.10;2.05;;;;;;;;;;5033121;28;20420;-58
2022/08/29 06:23:55;;;;;;;3.95;2.13;;;;;;;;;;5037401;28;20052;-58
2022/08/29 06:26:39;;;;;;;4.00;1.83;;;;;;;;;;5032430;28;20064;-58
2022/08/29 06:29:25;;;;;;;3.22;2.10;;;;;;;;;;5054364;28;20045;-58
2022/08/29 06:32:11;;;;;;;4.15;1.67;;;;;;;;;;5045654;28;20041;-58
2022/08/29 06:34:56;;;;;;;5.05;2.05;;;;;;;;;;5044664;28;20037;-58
2022/08/29 06:37:40;;;;;;;5.15;2.42;;;;;;;;;;5043586;28;20049;-58
2022/08/29 06:40:26;;;;;;;5.38;2.38;;;;;;;;;;5044139;28;20396;-58
2022/08/29 06:43:10;;;;;;;4.03;2.13;;;;;;;;;;5046661;28;20044;-59
2022/08/29 06:45:54;;;;;;;6.63;2.30;;;;;;;;;;5048325;28;20064;-59
2022/08/29 06:48:38;;;;;;;3.83;2.00;;;;;;;;;;5036246;28;20125;-59
2022/08/29 06:51:23;;;;;;;3.05;1.73;;;;;;;;;;5051342;28;20033;-59
2022/08/29 06:54:08;;;;;;;2.22;1.50;;;;;;;;;;5050592;28;20041;-59
2022/08/29 06:56:53;;;;;;;5.07;2.00;;;;;;;;;;5039691;28;20112;-59
2022/08/29 06:59:37;;;;;;;3.10;1.95;;;;;;;;;;5033602;28;20045;-59
2022/08/29 07:02:22;;;;;;;7.25;2.55;;;;;;;;;;5032689;28;20456;-57
2022/08/29 07:05:06;;;;;;;3.92;1.85;;;;;;;;;;5043004;28;20108;-59
2022/08/29 07:07:51;;;;;;;5.03;1.98;;;;;;;;;;5043329;28;20067;-57
2022/08/29 07:10:35;;;;;;;3.97;2.30;;;;;;;;;;5049199;28;20029;-58
2022/08/29 07:13:19;;;;;;;3.50;1.80;;;;;;;;;;5039103;28;20074;-58
2022/08/29 07:16:08;;;;;;;3.42;1.58;;;;;;;;;;5038129;28;20041;-59
2022/08/29 07:18:53;;;;;;;4.85;2.05;;;;;;;;;;5033437;28;20068;-58
2022/08/29 07:21:38;;;;;;;5.50;1.95;;;;;;;;;;5035982;28;20037;-59
2022/08/29 07:24:22;;;;;;;4.93;2.60;;;;;;;;;;5045640;28;20041;-60
2022/08/29 07:27:08;;;;;;;4.63;2.10;;;;;;;;;;5033916;28;20057;-59
2022/08/29 07:29:52;;;;;;;4.80;1.90;;;;;;;;;;5042657;28;20064;-59
2022/08/29 07:32:36;;;;;;;4.32;2.40;;;;;;;;;;5038173;28;20063;-58
2022/08/29 07:35:21;;;;;;;5.50;2.33;;;;;;;;;;5036669;28;20128;-59
2022/08/29 07:38:06;;;;;;;3.78;1.92;;;;;;;;;;5050656;28;20064;-59
2022/08/29 07:41:01;;;;;;;3.13;1.70;;;;;;;;;;5050816;28;20528;-58
2022/08/29 07:43:46;;;;;;;5.65;2.40;;;;;;;;;;5050507;28;20033;-58
2022/08/29 07:46:31;;;;;;;4.45;2.20;;;;;;;;;;5045445;28;20341;-58
2022/08/29 07:49:15;;;;;;;3.85;2.00;;;;;;;;;;5048941;28;20051;-59
2022/08/29 07:52:00;;;;;;;3.33;2.10;;;;;;;;;;5037521;28;20095;-58
2022/08/29 07:54:45;;;;;;;3.72;2.40;;;;;;;;;;5042800;28;20037;-59
2022/08/29 07:57:29;;;;;;;3.72;2.33;;;;;;;;;;5039062;28;20052;-59
2022/08/29 08:00:14;;;;;;;5.70;2.33;;;;;;;;;;5030758;28;20117;-59
2022/08/29 08:02:59;;;;;;;3.92;2.50;;;;;;;;;;5040365;28;20045;-59
2022/08/29 08:05:43;;;;;;;3.00;1.67;;;;;;;;;;5031567;28;20078;-58
2022/08/29 08:08:27;;;;;;;3.88;1.80;;;;;;;;;;5030640;28;20042;-58
2022/08/29 08:11:12;;;;;;;2.28;1.45;;;;;;;;;;5055014;28;20051;-58
2022/08/29 08:13:57;;;;;;;3.97;2.10;;;;;;;;;;5043310;28;20044;-58
2022/08/29 08:16:42;;;;;;;4.57;2.15;;;;;;;;;;5044735;28;20096;-58
2022/08/29 08:19:26;;;;;;;4.18;2.20;;;;;;;;;;5030442;28;20038;-58
2022/08/29 08:22:10;;;;;;;3.75;2.20;;;;;;;;;;5031375;28;20061;-58
2022/08/29 08:24:55;;;;;;;6.05;2.58;;;;;;;;;;5044132;28;20529;-58
2022/08/29 08:27:39;;;;;;;5.35;2.30;;;;;;;;;;5043328;28;20495;-57
2022/08/29 08:30:24;;;;;;;3.08;2.00;;;;;;;;;;5040909;28;20041;-58
2022/08/29 08:33:08;;;;;;;3.47;2.15;;;;;;;;;;5037596;28;20469;-59
2022/08/29 08:35:53;;;;;;;5.18;2.35;;;;;;;;;;5052487;28;20041;-58
2022/08/29 08:38:38;;;;;;;4.95;1.83;;;;;;;;;;5049225;28;20074;-58
2022/08/29 08:41:22;;;;;;;8.88;1.80;;;;;;;;;;5033944;28;20478;-58
2022/08/29 08:44:25;;;;;;;4.75;2.08;;;;;;;;;;5040835;28;20044;-58
2022/08/29 08:47:11;;;;;;;2.92;1.80;;;;;;;;;;5048431;28;20049;-58
2022/08/29 08:49:58;;;;;;;4.10;1.88;;;;;;;;;;5046579;28;20040;-59
2022/08/29 08:52:46;;;;;;;5.38;2.22;;;;;;;;;;5047352;28;20429;-58
2022/08/29 08:55:35;;;;;;;3.65;2.22;;;;;;;;;;5047628;28;20045;-59
2022/08/29 08:58:41;;;;;;;4.13;2.30;;;;;;;;;;5041328;28;20112;-58
2022/08/29 09:01:31;;;;;;;3.92;1.98;;;;;;;;;;5039908;28;20064;-59
2022/08/29 09:04:39;;;;;;;5.85;1.88;;;;;;;;;;5050668;28;20103;-59
2022/08/29 09:07:23;;;;;;;4.35;2.17;;;;;;;;;;5026981;28;20049;-59
2022/08/29 09:10:14;;;;;;;4.88;2.20;;;;;;;;;;5032059;28;20045;-58
2022/08/29 09:13:10;;;;;;;4.47;2.45;;;;;;;;;;5007962;28;20050;-59
2022/08/29 09:15:57;;;;;;;6.57;2.20;;;;;;;;;;5027995;28;20045;-59
2022/08/29 09:18:43;;;;;;;3.60;2.67;;;;;;;;;;5023483;28;20171;-59
2022/08/29 09:21:28;;;;;;;3.95;2.33;;;;;;;;;;5030773;28;20045;-59
2022/08/29 09:24:18;;;;;;;4.78;2.17;;;;;;;;;;5031073;28;20061;-58
2022/08/29 09:27:02;;;;;;;4.68;2.10;;;;;;;;;;4999459;28;20100;-58
2022/08/29 09:29:48;;;;;;;3.83;1.85;;;;;;;;;;5044683;28;20037;-57
2022/08/29 09:32:34;;;;;;;4.03;2.35;;;;;;;;;;5007915;28;20084;-58
2022/08/29 09:35:23;;;;;;;4.85;2.00;;;;;;;;;;5030079;28;20472;-59
2022/08/29 09:38:08;;;;;;;3.33;1.83;;;;;;;;;;5030315;28;20069;-59
2022/08/29 09:40:54;;;;;;;5.47;1.90;;;;;;;;;;5012810;28;20493;-59
2022/08/29 09:43:38;;;;;;;4.47;1.70;;;;;;;;;;5017353;28;20042;-58
2022/08/29 09:46:24;;;;;;;5.30;2.17;;;;;;;;;;5032955;28;20049;-58
2022/08/29 09:49:13;;;;;;;3.08;1.85;;;;;;;;;;5041046;28;20116;-59
2022/08/29 09:52:08;;;;;;;5.22;2.20;;;;;;;;;;5047223;28;20511;-60
2022/08/29 09:54:52;;;;;;;2.78;1.92;;;;;;;;;;5042228;28;20073;-58
2022/08/29 09:57:37;;;;;;;7.47;2.47;;;;;;;;;;5051308;28;20071;-59
2022/08/29 10:00:24;;;;;;;6.03;1.95;;;;;;;;;;5050882;28;20086;-59
2022/08/29 10:03:18;;;;;;;5.28;1.98;;;;;;;;;;5052002;28;20049;-59
2022/08/29 10:06:18;;;;;;;5.85;1.92;;;;;;;;;;5041777;28;20083;-59
2022/08/29 10:09:03;;;;;;;;;;;;;;;;;;5040228;28;20392;-60
2022/08/29 10:11:50;;;;;;;4.18;1.80;;;;;;;;;;5051643;28;20364;-59
2022/08/29 10:14:37;;;;;;;4.53;1.80;;;;;;;;;;5039321;28;20155;-60
2022/08/29 10:20:56;;;;;;;3.67;1.60;;;;;;;;;;5041477;28;20057;-59
2022/08/29 10:24:02;;;;;;;3.70;1.60;;;;;;;;;;5032614;28;20124;-60
2022/08/29 10:26:50;;;;;;;2.25;1.60;;;;;;;;;;5041132;28;20098;-58
2022/08/29 10:29:37;;;;;;;3.42;1.80;;;;;;;;;;5051355;28;20068;-58
2022/08/29 10:32:28;;;;;;;2.03;1.50;;;;;;;;;;5049272;28;20056;-58
2022/08/29 10:35:16;;;;;;;3.47;1.50;;;;;;;;;;5048016;28;20108;-59
2022/08/29 10:38:08;;;;;;;4.13;1.55;;;;;;;;;;5052109;28;20095;-59
2022/08/29 10:41:05;;;;;;;2.58;1.40;;;;;;;;;;5032229;28;20041;-59
2022/08/29 10:43:58;;;;;;;3.60;1.20;;;;;;;;;;5041497;28;20658;-59
2022/08/29 10:47:15;;;;;;;3.80;1.58;;;;;;;;;;5045057;28;20149;-59
2022/08/29 10:50:06;;;;;;;2.88;1.02;;;;;;;;;;5001390;28;20049;-59
2022/08/29 10:52:56;;;;;;;4.07;1.52;;;;;;;;;;4995375;28;20129;-59
2022/08/29 10:55:46;;;;;;;3.00;1.35;;;;;;;;;;5001409;28;20413;-59
2022/08/29 10:58:42;;;;;;;3.25;1.40;;;;;;;;;;4994128;28;20042;-59
2022/08/29 11:01:36;;;;;;;3.13;1.55;;;;;;;;;;5004262;28;20049;-59
2022/08/29 11:04:28;;;;;;;2.55;1.35;;;;;;;;;;4989147;28;20074;-58
2022/08/29 11:07:16;;;;;;;2.85;1.67;;;;;;;;;;4991895;28;20073;-58
2022/08/29 11:10:07;;;;;;;2.00;1.17;;;;;;;;;;5008471;28;20494;-58
2022/08/29 11:12:55;;;;;;;3.70;1.20;;;;;;;;;;5005271;28;20045;-58
2022/08/29 11:15:45;;;;;;;2.08;1.23;;;;;;;;;;4999543;28;20045;-58
2022/08/29 11:18:33;;;;;;;2.90;1.40;;;;;;;;;;5002865;28;20566;-59
2022/08/29 11:21:52;;;;;;;2.80;1.30;;;;;;;;;;4988850;28;20058;-59
2022/08/29 11:24:38;;;;;;;2.70;1.50;;;;;;;;;;4951530;28;20194;-59
2022/08/29 11:27:22;;;;;;;2.88;1.15;;;;;;;;;;4969120;28;20121;-59
2022/08/29 11:30:25;;;;;;;4.07;1.23;;;;;;;;;;4955712;28;20371;-59
2022/08/29 11:33:13;;;;;;;3.55;1.20;;;;;;;;;;4969346;28;20134;-59
2022/08/29 11:36:16;;;;;;;1.92;1.25;;;;;;;;;;4955876;28;20057;-60
2022/08/29 11:39:38;;;;;;;2.38;1.02;;;;;;;;;;4951323;28;20137;-59
2022/08/29 11:42:27;;;;;;;3.70;1.55;;;;;;;;;;4944409;29;20176;-60
2022/08/29 11:45:14;;;;;;;1.80;1.30;;;;;;;;;;4949916;29;20057;-60
2022/08/29 11:48:16;;;;;;;3.70;1.35;;;;;;;;;;4936456;29;20283;-60
2022/08/29 11:51:19;;;;;;;2.20;1.20;;;;;;;;;;4943872;29;20142;-59
2022/08/29 11:54:22;;;;;;;2.20;1.13;;;;;;;;;;4946745;29;20395;-59
2022/08/29 11:57:09;;;;;;;5.20;1.27;;;;;;;;;;4950117;29;20238;-59
2022/08/29 11:59:57;;;;;;;2.50;1.23;;;;;;;;;;5003978;28;20081;-59
2022/08/29 12:02:42;;;;;;;1.80;1.00;;;;;;;;;;5005577;28;20156;-59
2022/08/29 12:05:49;;;;;;;1.85;1.02;;;;;;;;;;5008316;28;20073;-58
2022/08/29 12:08:40;;;;;;;1.83;1.10;;;;;;;;;;4991673;28;20125;-59
2022/08/29 12:11:44;;;;;;;2.90;1.20;;;;;;;;;;4994986;28;20046;-58
2022/08/29 12:14:28;;;;;;;2.55;1.00;;;;;;;;;;5054133;28;20056;-58
2022/08/29 12:17:15;;;;;;;3.10;1.17;;;;;;;;;;5041961;28;20151;-58
2022/08/29 12:20:03;;;;;;;4.32;0.80;;;;;;;;;;5053396;28;20053;-58
2022/08/29 12:22:52;;;;;;;1.80;1.05;;;;;;;;;;5047885;28;20052;-58
2022/08/29 12:25:46;;;;;;;1.95;0.70;;;;;;;;;;5046769;28;20045;-58
2022/08/29 12:28:33;;;;;;;2.03;0.98;;;;;;;;;;5053215;28;20039;-59
2022/08/29 12:31:21;;;;;;;2.13;1.00;;;;;;;;;;5053593;28;20041;-59
2022/08/29 12:34:14;;;;;;;3.33;1.17;;;;;;;;;;5053580;28;20040;-59
2022/08/29 12:36:59;;;;;;;1.90;0.93;;;;;;;;;;5050324;28;20116;-60
2022/08/29 12:39:52;;;;;;;1.55;0.93;;;;;;;;;;5045779;28;20044;-59
2022/08/29 12:42:55;;;;;;;4.05;0.80;;;;;;;;;;5038664;28;20041;-58
2022/08/29 12:45:43;;;;;;;2.33;0.98;;;;;;;;;;5051373;28;20048;-58
2022/08/29 12:48:34;;;;;;;1.83;0.88;;;;;;;;;;5047199;28;20041;-58
2022/08/29 12:51:38;;;;;;;2.35;0.75;;;;;;;;;;5053782;28;20057;-58
2022/08/29 12:54:31;;;;;;;1.85;0.90;;;;;;;;;;5047976;28;20033;-58
2022/08/29 12:57:18;;;;;;;2.08;0.88;;;;;;;;;;5053842;28;20041;-58
2022/08/29 13:00:05;;;;;;;1.27;0.73;;;;;;;;;;5054948;28;20125;-58
2022/08/29 13:03:07;;;;;;;4.00;1.10;;;;;;;;;;5054253;28;20041;-59
2022/08/29 13:06:00;;;;;;;1.48;1.10;;;;;;;;;;5041393;28;20045;-59
2022/08/29 13:08:47;;;;;;;2.55;1.10;;;;;;;;;;5042190;28;20103;-58
2022/08/29 13:11:32;;;;;;;2.53;0.88;;;;;;;;;;5038616;28;20041;-59
2022/08/29 13:14:16;;;;;;;1.83;0.73;;;;;;;;;;5058003;28;20128;-59
2022/08/29 13:17:00;;;;;;;1.88;0.70;;;;;;;;;;5042437;28;20384;-58
2022/08/29 13:20:04;;;;;;;3.13;1.10;;;;;;;;;;5033113;28;20116;-59
2022/08/29 13:22:49;;;;;;;1.92;0.90;;;;;;;;;;5037254;28;20111;-59
2022/08/29 13:25:36;;;;;;;1.83;0.73;;;;;;;;;;5037179;28;20045;-58
2022/08/29 13:28:24;;;;;;;1.88;1.00;;;;;;;;;;5047399;28;20153;-57
2022/08/29 13:31:21;;;;;;;1.73;0.82;;;;;;;;;;5043214;28;20051;-58
2022/08/29 13:34:05;;;;;;;4.80;1.17;;;;;;;;;;5047973;28;20079;-59
2022/08/29 13:36:58;;;;;;;1.92;0.70;;;;;;;;;;5045967;28;20130;-59
2022/08/29 13:39:44;;;;;;;2.15;1.00;;;;;;;;;;5049921;28;20766;-58
2022/08/29 13:42:29;;;;;;;1.35;1.00;;;;;;;;;;5043438;28;20127;-59
2022/08/29 13:45:19;;;;;;;1.80;0.60;;;;;;;;;;5043783;28;20124;-59
2022/08/29 13:48:17;;;;;;;1.20;0.70;;;;;;;;;;5046157;28;20040;-59
2022/08/29 13:51:02;;;;;;;2.25;0.90;;;;;;;;;;5043605;28;20151;-59
2022/08/29 13:53:46;;;;;;;1.65;0.82;;;;;;;;;;5045046;28;20106;-59
2022/08/29 13:56:32;;;;;;;4.70;0.77;;;;;;;;;;5036899;28;20428;-59
2022/08/29 13:59:17;;;;;;;1.20;0.80;;;;;;;;;;5033755;28;20050;-58
2022/08/29 14:02:02;;;;;;;0.82;0.60;;;;;;;;;;5047954;28;20037;-58
2022/08/29 14:04:47;;;;;;;1.38;0.68;;;;;;;;;;5045120;28;20068;-59
2022/08/29 14:07:32;;;;;;;1.73;0.70;;;;;;;;;;5032972;28;20064;-58
2022/08/29 14:10:16;;;;;;;1.77;0.80;;;;;;;;;;5034588;28;20346;-59
2022/08/29 14:13:01;;;;;;;1.45;0.68;;;;;;;;;;5033028;28;20048;-59
2022/08/29 14:15:46;;;;;;;2.47;0.80;;;;;;;;;;5038318;28;20041;-59
2022/08/29 14:18:31;;;;;;;1.70;0.82;;;;;;;;;;5044629;28;20045;-60
2022/08/29 14:21:16;;;;;;;1.67;0.70;;;;;;;;;;5039806;28;20045;-60
2022/08/29 14:24:00;;;;;;;1.27;0.60;;;;;;;;;;5038304;28;20053;-60
2022/08/29 14:26:44;;;;;;;2.10;0.57;;;;;;;;;;5035453;28;20399;-60
2022/08/29 14:29:30;;;;;;;3.60;0.75;;;;;;;;;;5035847;28;20042;-59
2022/08/29 14:32:14;;;;;;;2.03;1.02;;;;;;;;;;5034505;28;20120;-59
2022/08/29 14:34:59;;;;;;;0.88;0.70;;;;;;;;;;5031233;28;20042;-58
2022/08/29 14:37:43;;;;;;;2.25;0.90;;;;;;;;;;5044559;28;20033;-59
2022/08/29 14:40:28;;;;;;;1.67;0.80;;;;;;;;;;5050860;28;20064;-59
2022/08/29 14:43:13;;;;;;;3.05;0.82;;;;;;;;;;5052042;28;20049;-60
2022/08/29 14:45:57;;;;;;;2.53;0.90;;;;;;;;;;5051815;28;20092;-60
2022/08/29 14:48:41;;;;;;;3.42;0.90;;;;;;;;;;5051591;28;20045;-60
2022/08/29 14:51:27;;;;;;;2.95;1.00;;;;;;;;;;5050506;28;20127;-59
2022/08/29 14:54:11;;;;;;;3.92;1.00;;;;;;;;;;5050156;28;20040;-59
2022/08/29 14:56:56;;;;;;;2.03;1.00;;;;;;;;;;5050690;28;20178;-59
2022/08/29 14:59:40;;;;;;;1.48;0.60;;;;;;;;;;5042438;28;20053;-59
2022/08/29 15:02:25;;;;;;;2.30;0.95;;;;;;;;;;5037687;28;20442;-59
2022/08/29 15:05:09;;;;;;;3.15;0.85;;;;;;;;;;5050759;28;20045;-59
2022/08/29 15:07:54;;;;;;;2.17;0.88;;;;;;;;;;5042186;28;20556;-59
2022/08/29 15:10:39;;;;;;;2.10;0.70;;;;;;;;;;5038837;28;20462;-59
2022/08/29 15:13:23;;;;;;;2.83;0.90;;;;;;;;;;5042572;28;20053;-59
2022/08/29 15:16:08;;;;;;;2.55;0.80;;;;;;;;;;5031078;28;20042;-59
2022/08/29 15:18:53;;;;;;;1.60;0.88;;;;;;;;;;5043172;28;20155;-59
2022/08/29 15:21:38;;;;;;;2.13;0.90;;;;;;;;;;5034665;28;20540;-59
2022/08/29 15:24:22;;;;;;;1.23;0.80;;;;;;;;;;5035806;28;20037;-58
2022/08/29 15:27:07;;;;;;;2.92;1.00;;;;;;;;;;5046552;28;20032;-59
2022/08/29 15:29:52;;;;;;;2.13;0.90;;;;;;;;;;5041623;28;20037;-58
2022/08/29 15:32:37;;;;;;;2.05;0.88;;;;;;;;;;5031302;28;20057;-58
2022/08/29 15:35:22;;;;;;;2.10;0.82;;;;;;;;;;5036002;28;20112;-58